Time;durP1;ratioP1;P1;durP2;ratioP2;P2;SDS_P1;SDS_P2;PMS_P1;PMS_P2;Temp;Humidity;BMP_temperature;BMP_pressure;BME280_temperature;BME280_humidity;BME280_pressure;Samples;Min_cycle;Max_cycle;Signal;HPM_P1;HPM_P2
2021/06/03 00:00:17;;;;;;;11.80;6.95;;;12.60;99.90;;;;;;4921848;29;20095;-70
2021/06/03 00:02:47;;;;;;;9.30;6.68;;;12.60;99.90;;;;;;4922664;29;20024;-72
2021/06/03 00:05:15;;;;;;;7.10;6.03;;;12.60;99.90;;;;;;4924465;29;20035;-71
2021/06/03 00:07:42;;;;;;;8.07;5.65;;;12.60;99.90;;;;;;4923403;29;20031;-72
2021/06/03 00:10:10;;;;;;;8.77;5.53;;;12.70;99.90;;;;;;4924256;29;20494;-72
2021/06/03 00:12:38;;;;;;;10.20;6.70;;;12.70;99.90;;;;;;4924249;29;20811;-72
2021/06/03 00:15:09;;;;;;;8.68;5.75;;;12.60;99.90;;;;;;4925118;29;20050;-71
2021/06/03 00:17:36;;;;;;;8.38;5.55;;;12.50;99.90;;;;;;4924287;29;20031;-73
2021/06/03 00:20:10;;;;;;;7.38;5.50;;;12.40;99.90;;;;;;4926913;29;20042;-72
2021/06/03 00:22:38;;;;;;;7.43;4.93;;;12.40;99.90;;;;;;4924858;29;20097;-72
2021/06/03 00:25:07;;;;;;;8.48;5.25;;;12.40;99.90;;;;;;4923402;29;20032;-70
2021/06/03 00:27:35;;;;;;;8.07;5.05;;;12.50;99.90;;;;;;4926202;29;20028;-70
2021/06/03 00:30:04;;;;;;;7.68;4.50;;;12.50;99.90;;;;;;4924737;29;20043;-70
2021/06/03 00:32:32;;;;;;;8.98;5.30;;;12.50;99.90;;;;;;4923104;29;20398;-71
2021/06/03 00:34:59;;;;;;;11.82;5.13;;;12.60;99.90;;;;;;4923198;29;20027;-70
2021/06/03 00:37:27;;;;;;;9.00;5.20;;;12.70;99.90;;;;;;4927408;29;20027;-72
2021/06/03 00:39:54;;;;;;;6.90;4.20;;;12.70;99.90;;;;;;4925141;29;20099;-72
2021/06/03 00:42:24;;;;;;;9.90;5.75;;;12.80;99.90;;;;;;4922728;29;20043;-70
2021/06/03 00:44:51;;;;;;;8.65;5.93;;;12.70;99.90;;;;;;4923038;29;20042;-72
2021/06/03 00:47:19;;;;;;;9.80;6.82;;;12.80;99.90;;;;;;4928536;29;20034;-70
2021/06/03 00:49:46;;;;;;;11.82;6.10;;;12.80;99.90;;;;;;4925489;29;20067;-72
2021/06/03 00:52:15;;;;;;;12.25;6.22;;;12.90;99.90;;;;;;4926878;29;20031;-72
2021/06/03 00:54:43;;;;;;;14.85;7.25;;;12.90;99.90;;;;;;4925686;29;20491;-71
2021/06/03 00:57:11;;;;;;;9.68;6.18;;;12.90;99.90;;;;;;4924508;29;20028;-72
2021/06/03 00:59:39;;;;;;;8.52;6.95;;;13.00;99.90;;;;;;4923559;29;20044;-71
2021/06/03 01:02:06;;;;;;;8.50;5.72;;;13.00;99.90;;;;;;4923674;29;20102;-71
2021/06/03 01:04:34;;;;;;;10.27;5.80;;;13.10;99.90;;;;;;4924002;29;20028;-73
2021/06/03 01:07:01;;;;;;;11.80;7.00;;;13.20;99.90;;;;;;4923289;29;20565;-73
2021/06/03 01:09:38;;;;;;;10.32;6.63;;;13.20;99.90;;;;;;4923671;29;20386;-72
2021/06/03 01:12:28;;;;;;;9.18;6.57;;;13.10;99.90;;;;;;4922711;29;20395;-72
2021/06/03 01:15:04;;;;;;;9.88;7.15;;;13.10;99.90;;;;;;4912071;29;20051;-71
2021/06/03 01:17:33;;;;;;;9.73;6.95;;;13.20;99.90;;;;;;4921780;29;20436;-71
2021/06/03 01:20:04;;;;;;;14.35;8.35;;;13.10;99.90;;;;;;4922113;29;20114;-72
2021/06/03 01:23:08;;;;;;;8.13;6.45;;;13.10;99.90;;;;;;4901417;29;20490;-72
2021/06/03 01:25:36;;;;;;;10.05;7.43;;;13.10;99.90;;;;;;4897983;29;20118;-73
2021/06/03 01:28:04;;;;;;;13.95;6.95;;;13.10;99.90;;;;;;4923618;29;20055;-71
2021/06/03 01:30:41;;;;;;;10.35;7.75;;;13.10;99.90;;;;;;4923777;29;20032;-72
2021/06/03 01:33:12;;;;;;;11.43;7.47;;;13.10;99.90;;;;;;4924033;29;20125;-72
2021/06/03 01:35:44;;;;;;;9.95;7.05;;;13.10;99.90;;;;;;4921473;29;20080;-72
2021/06/03 01:38:15;;;;;;;10.93;7.32;;;13.10;99.90;;;;;;4923372;29;20386;-72
2021/06/03 01:40:45;;;;;;;9.25;7.97;;;13.10;99.90;;;;;;4925626;29;20027;-72
2021/06/03 01:43:16;;;;;;;11.73;8.00;;;13.00;99.90;;;;;;4924135;29;20047;-73
2021/06/03 01:45:43;;;;;;;8.63;6.82;;;13.00;99.90;;;;;;4924985;29;20042;-72
2021/06/03 01:48:12;;;;;;;10.68;7.28;;;13.00;99.90;;;;;;4925258;29;20024;-72
2021/06/03 01:50:41;;;;;;;10.50;7.15;;;13.00;99.90;;;;;;4925220;29;20055;-72
2021/06/03 01:53:10;;;;;;;9.20;7.93;;;13.10;99.90;;;;;;4921990;29;20743;-73
2021/06/03 01:55:38;;;;;;;12.80;8.85;;;13.10;99.90;;;;;;4921789;29;20064;-71
2021/06/03 01:58:06;;;;;;;10.82;8.52;;;13.20;99.90;;;;;;4920113;29;20063;-74
2021/06/03 02:00:34;;;;;;;15.02;9.60;;;13.30;99.90;;;;;;4906413;29;21458;-71
2021/06/03 02:03:02;;;;;;;12.60;8.10;;;13.30;99.90;;;;;;4923707;29;20558;-71
2021/06/03 02:05:30;;;;;;;13.27;10.38;;;13.30;99.90;;;;;;4922722;29;20031;-71
2021/06/03 02:07:58;;;;;;;11.05;8.75;;;13.30;99.90;;;;;;4928643;29;20114;-71
2021/06/03 02:10:25;;;;;;;21.23;9.88;;;13.30;99.90;;;;;;4924236;29;20020;-71
2021/06/03 02:13:08;;;;;;;12.98;8.32;;;13.30;99.90;;;;;;4926556;29;20044;-73
2021/06/03 02:15:37;;;;;;;15.20;8.15;;;13.30;99.90;;;;;;4919901;29;20030;-72
2021/06/03 02:18:11;;;;;;;11.20;8.10;;;13.30;99.90;;;;;;4926038;29;20550;-72
2021/06/03 02:20:42;;;;;;;11.07;7.85;;;13.30;99.90;;;;;;4927244;29;20023;-72
2021/06/03 02:23:11;;;;;;;12.40;7.85;;;13.30;99.90;;;;;;4925302;29;20031;-72
2021/06/03 02:25:40;;;;;;;12.70;8.32;;;13.40;99.90;;;;;;4927294;29;20134;-72
2021/06/03 02:28:08;;;;;;;12.48;8.00;;;13.40;99.90;;;;;;4925706;29;20024;-72
2021/06/03 02:30:35;;;;;;;11.68;7.72;;;13.40;99.90;;;;;;4929159;29;20471;-72
2021/06/03 02:33:04;;;;;;;12.13;8.25;;;13.40;99.90;;;;;;4930127;29;20036;-72
2021/06/03 02:35:32;;;;;;;9.35;7.57;;;13.40;99.90;;;;;;4928850;29;20038;-73
2021/06/03 02:38:00;;;;;;;12.40;9.23;;;13.40;99.90;;;;;;4925043;29;20095;-70
2021/06/03 02:40:31;;;;;;;16.70;8.75;;;13.30;99.90;;;;;;4908307;29;20027;-70
2021/06/03 02:42:59;;;;;;;12.43;9.48;;;13.30;99.90;;;;;;4925628;29;20036;-71
2021/06/03 02:45:29;;;;;;;14.27;9.85;;;13.30;99.90;;;;;;4925944;29;20394;-71
2021/06/03 02:47:58;;;;;;;14.43;9.38;;;13.20;99.90;;;;;;4926875;29;20694;-71
2021/06/03 02:50:27;;;;;;;15.10;9.65;;;13.30;99.90;;;;;;4925973;29;20059;-72
2021/06/03 02:52:55;;;;;;;12.57;9.07;;;13.30;99.90;;;;;;4925647;29;20055;-72
2021/06/03 02:55:24;;;;;;;13.70;9.77;;;13.20;99.90;;;;;;4925987;29;20039;-72
2021/06/03 02:57:53;;;;;;;16.73;10.48;;;13.20;99.90;;;;;;4923131;29;20047;-71
2021/06/03 03:00:29;;;;;;;11.68;7.85;;;13.20;99.90;;;;;;4930443;29;20410;-72
2021/06/03 03:02:58;;;;;;;9.57;6.55;;;13.20;99.90;;;;;;4924781;29;20506;-72
2021/06/03 03:05:26;;;;;;;11.48;7.32;;;13.20;99.90;;;;;;4925367;29;20095;-72
2021/06/03 03:07:54;;;;;;;16.02;7.50;;;13.20;99.90;;;;;;4926611;29;20118;-72
2021/06/03 03:10:26;;;;;;;14.60;9.40;;;13.20;99.90;;;;;;4923879;29;20028;-71
2021/06/03 03:12:54;;;;;;;14.57;9.43;;;13.20;99.90;;;;;;4922075;29;20367;-71
2021/06/03 03:15:22;;;;;;;12.10;8.82;;;13.20;99.90;;;;;;4922413;29;20031;-71
2021/06/03 03:17:50;;;;;;;9.35;6.50;;;13.10;99.90;;;;;;4926081;29;20036;-72
2021/06/03 03:20:20;;;;;;;10.30;6.95;;;13.10;99.90;;;;;;4926362;29;20107;-72
2021/06/03 03:22:47;;;;;;;9.25;6.35;;;13.10;99.90;;;;;;4927496;29;20032;-71
2021/06/03 03:25:16;;;;;;;9.95;7.35;;;13.10;99.90;;;;;;4922962;29;20040;-71
2021/06/03 03:27:46;;;;;;;11.07;8.00;;;13.10;99.90;;;;;;4925518;29;20028;-72
2021/06/03 03:30:17;;;;;;;11.68;6.50;;;13.10;99.90;;;;;;4924934;29;20051;-70
2021/06/03 03:32:45;;;;;;;9.70;5.72;;;13.10;99.90;;;;;;4925752;29;20486;-71
2021/06/03 03:35:13;;;;;;;12.13;8.02;;;13.10;99.90;;;;;;4928379;29;20032;-71
2021/06/03 03:37:42;;;;;;;52.10;33.28;;;13.10;99.90;;;;;;4925882;29;20079;-71
2021/06/03 03:40:20;;;;;;;21.23;15.82;;;13.10;99.90;;;;;;4926178;29;20031;-70
2021/06/03 03:42:48;;;;;;;10.90;7.75;;;13.10;99.90;;;;;;4924429;29;20024;-71
2021/06/03 03:45:18;;;;;;;14.93;10.02;;;13.00;99.90;;;;;;4925898;29;20034;-71
2021/06/03 03:47:45;;;;;;;17.27;11.57;;;13.00;99.90;;;;;;4926582;29;20031;-70
2021/06/03 03:50:15;;;;;;;10.63;8.27;;;13.00;99.90;;;;;;4924123;29;20082;-71
2021/06/03 03:52:43;;;;;;;12.07;8.80;;;13.00;99.90;;;;;;4924390;29;20114;-71
2021/06/03 03:55:12;;;;;;;12.77;10.95;;;13.00;99.90;;;;;;4923743;29;20509;-71
2021/06/03 03:57:41;;;;;;;21.80;13.90;;;13.00;99.90;;;;;;4924600;29;20050;-71
2021/06/03 04:00:16;;;;;;;15.73;10.30;;;13.00;99.90;;;;;;4924101;29;20043;-70
2021/06/03 04:02:44;;;;;;;12.57;9.02;;;13.00;99.90;;;;;;4924743;29;20123;-71
2021/06/03 04:05:12;;;;;;;11.38;8.93;;;13.00;99.90;;;;;;4924463;29;20030;-71
2021/06/03 04:07:40;;;;;;;10.93;8.60;;;13.10;99.90;;;;;;4924883;29;20047;-71
2021/06/03 04:10:10;;;;;;;16.10;11.15;;;13.10;99.90;;;;;;4927239;29;20063;-72
2021/06/03 04:12:38;;;;;;;21.85;11.63;;;13.10;99.90;;;;;;4925389;29;20039;-71
2021/06/03 04:15:08;;;;;;;16.17;9.73;;;13.10;99.90;;;;;;4923726;29;20067;-72
2021/06/03 04:17:36;;;;;;;16.00;10.32;;;13.10;99.90;;;;;;4921324;29;20031;-70
2021/06/03 04:20:11;;;;;;;12.15;9.70;;;13.10;99.90;;;;;;4921988;29;20031;-71
2021/06/03 04:22:39;;;;;;;14.48;8.93;;;13.10;99.90;;;;;;4925037;29;20470;-72
2021/06/03 04:25:07;;;;;;;13.07;9.20;;;13.10;99.90;;;;;;4905607;28;20114;-71
2021/06/03 04:27:36;;;;;;;15.02;8.20;;;13.10;99.90;;;;;;4924007;29;20470;-71
2021/06/03 04:30:07;;;;;;;12.38;8.88;;;13.10;99.90;;;;;;4922996;29;20430;-71
2021/06/03 04:32:35;;;;;;;14.05;9.02;;;13.10;99.90;;;;;;4922892;29;20031;-71
2021/06/03 04:35:04;;;;;;;13.90;9.45;;;13.10;99.90;;;;;;4922387;29;20775;-70
2021/06/03 04:37:31;;;;;;;15.55;10.88;;;13.10;99.90;;;;;;4928250;29;20036;-70
2021/06/03 04:39:59;;;;;;;14.38;9.45;;;13.00;99.90;;;;;;4925055;29;20035;-71
2021/06/03 04:42:26;;;;;;;15.38;9.07;;;13.00;99.90;;;;;;4923409;29;20360;-71
2021/06/03 04:44:54;;;;;;;13.93;10.73;;;12.90;99.90;;;;;;4924528;29;20039;-70
2021/06/03 04:47:21;;;;;;;14.50;11.10;;;12.90;99.90;;;;;;4923774;29;20035;-70
2021/06/03 04:49:48;;;;;;;14.50;10.80;;;12.90;99.90;;;;;;4924601;29;20034;-71
2021/06/03 04:52:25;;;;;;;13.10;10.82;;;12.80;99.90;;;;;;4921477;29;20028;-71
2021/06/03 04:54:59;;;;;;;18.63;11.13;;;12.80;99.90;;;;;;4924702;29;20122;-70
2021/06/03 04:57:28;;;;;;;13.57;10.43;;;12.90;99.90;;;;;;4922188;29;20505;-71
2021/06/03 04:59:56;;;;;;;15.20;12.13;;;12.90;99.90;;;;;;4924381;29;20529;-71
2021/06/03 05:02:24;;;;;;;17.05;11.25;;;12.80;99.90;;;;;;4926858;29;20066;-70
2021/06/03 05:04:53;;;;;;;17.48;13.25;;;12.80;99.90;;;;;;4922707;29;20032;-72
2021/06/03 05:07:21;;;;;;;16.10;12.32;;;12.80;99.90;;;;;;4926973;29;20545;-71
2021/06/03 05:09:48;;;;;;;15.15;12.02;;;12.80;99.90;;;;;;4922473;29;20102;-71
2021/06/03 05:12:16;;;;;;;16.83;11.63;;;12.80;99.90;;;;;;4924380;29;20027;-71
2021/06/03 05:14:44;;;;;;;16.25;11.80;;;12.80;99.90;;;;;;4923410;29;20051;-69
2021/06/03 05:17:12;;;;;;;14.20;11.77;;;12.80;99.90;;;;;;4925530;29;20043;-72
2021/06/03 05:19:40;;;;;;;19.40;13.60;;;12.90;99.90;;;;;;4921333;29;20031;-70
2021/06/03 05:22:07;;;;;;;17.30;12.40;;;12.80;99.90;;;;;;4926594;29;20482;-70
2021/06/03 05:24:35;;;;;;;18.08;13.07;;;12.90;99.90;;;;;;4924846;29;20032;-70
2021/06/03 05:27:03;;;;;;;18.23;13.23;;;12.80;99.90;;;;;;4923110;29;20074;-70
2021/06/03 05:29:30;;;;;;;16.55;11.80;;;12.90;99.90;;;;;;4922771;29;20625;-69
2021/06/03 05:31:58;;;;;;;18.52;13.68;;;12.80;99.90;;;;;;4921642;29;20107;-71
2021/06/03 05:34:25;;;;;;;17.55;12.90;;;12.80;99.90;;;;;;4924289;29;20035;-69
2021/06/03 05:36:53;;;;;;;20.40;13.43;;;12.80;99.90;;;;;;4924630;29;20038;-71
2021/06/03 05:39:21;;;;;;;19.33;15.32;;;12.90;99.90;;;;;;4921628;29;20059;-72
2021/06/03 05:41:48;;;;;;;20.23;14.10;;;12.90;99.90;;;;;;4921274;29;20130;-70
2021/06/03 05:44:16;;;;;;;20.40;14.70;;;12.90;99.90;;;;;;4922615;29;20075;-69
2021/06/03 05:46:43;;;;;;;22.35;16.27;;;12.90;99.90;;;;;;4923501;29;20036;-71
2021/06/03 05:49:11;;;;;;;20.65;14.27;;;12.90;99.90;;;;;;4923856;29;20027;-69
2021/06/03 05:51:41;;;;;;;19.80;14.82;;;12.90;99.90;;;;;;4923909;29;20733;-70
2021/06/03 05:54:10;;;;;;;22.10;15.07;;;12.90;99.90;;;;;;4926912;29;20214;-70
2021/06/03 05:56:38;;;;;;;17.65;14.50;;;12.90;99.90;;;;;;4928793;29;20020;-70
2021/06/03 05:59:06;;;;;;;19.20;14.23;;;12.80;99.90;;;;;;4924910;29;20046;-70
2021/06/03 06:01:34;;;;;;;20.33;14.35;;;12.90;99.90;;;;;;4924997;29;20142;-71
2021/06/03 06:06:29;;;;;;;21.25;14.18;;;12.80;99.90;;;;;;4930636;29;20136;-71
2021/06/03 06:08:59;;;;;;;19.67;12.93;;;12.80;99.90;;;;;;4930804;29;20020;-72
2021/06/03 06:11:30;;;;;;;16.33;12.82;;;12.90;99.90;;;;;;4926560;29;20075;-71
2021/06/03 06:13:58;;;;;;;25.50;13.95;;;12.80;99.90;;;;;;4925322;29;20048;-70
2021/06/03 06:16:26;;;;;;;20.27;13.52;;;12.80;99.90;;;;;;4927638;29;20091;-71
2021/06/03 06:18:53;;;;;;;18.40;13.40;;;12.80;99.90;;;;;;4928140;29;20490;-71
2021/06/03 06:21:22;;;;;;;18.60;13.05;;;12.90;99.90;;;;;;4924980;29;20023;-70
2021/06/03 06:23:50;;;;;;;15.25;12.05;;;12.90;99.90;;;;;;4926784;29;20028;-72
2021/06/03 06:26:21;;;;;;;15.05;10.82;;;12.80;99.90;;;;;;4927171;29;20021;-72
2021/06/03 06:28:49;;;;;;;17.25;12.00;;;12.80;99.90;;;;;;4925778;29;20042;-72
2021/06/03 06:31:18;;;;;;;15.20;10.60;;;12.80;99.90;;;;;;4924829;29;20024;-72
2021/06/03 06:33:46;;;;;;;17.50;11.85;;;12.80;99.90;;;;;;4927202;29;20044;-72
2021/06/03 06:36:15;;;;;;;14.55;9.60;;;12.80;99.90;;;;;;4928842;29;20106;-71
2021/06/03 06:38:43;;;;;;;12.73;10.05;;;12.80;99.90;;;;;;4927528;29;20034;-72
2021/06/03 06:41:12;;;;;;;16.00;10.85;;;12.80;99.90;;;;;;4925256;29;20023;-72
2021/06/03 06:43:39;;;;;;;19.00;10.85;;;12.80;99.90;;;;;;4925426;29;20052;-72
2021/06/03 06:46:07;;;;;;;16.40;11.48;;;12.80;99.90;;;;;;4924435;29;20024;-71
2021/06/03 06:48:35;;;;;;;16.83;12.18;;;12.80;99.90;;;;;;4926222;29;20035;-72
2021/06/03 06:51:03;;;;;;;15.40;12.05;;;12.80;99.90;;;;;;4927139;29;20043;-72
2021/06/03 06:53:30;;;;;;;16.00;12.68;;;12.80;99.90;;;;;;4926386;29;20049;-72
2021/06/03 06:55:58;;;;;;;16.65;12.35;;;12.80;99.90;;;;;;4924228;29;20029;-72
2021/06/03 06:58:25;;;;;;;19.15;13.43;;;12.80;99.90;;;;;;4925552;29;20032;-71
2021/06/03 07:00:52;;;;;;;22.15;14.52;;;12.80;99.90;;;;;;4925393;29;20062;-70
2021/06/03 07:03:20;;;;;;;20.83;13.43;;;12.80;99.90;;;;;;4926809;29;20027;-70
2021/06/03 07:05:48;;;;;;;19.95;14.48;;;12.80;99.90;;;;;;4926019;29;20032;-71
2021/06/03 07:08:16;;;;;;;21.70;13.93;;;12.70;99.90;;;;;;4926283;29;20024;-70
2021/06/03 07:10:44;;;;;;;17.38;13.80;;;12.70;99.90;;;;;;4925060;29;20036;-70
2021/06/03 07:13:11;;;;;;;22.98;14.32;;;12.70;99.90;;;;;;4925597;29;20481;-70
2021/06/03 07:15:39;;;;;;;16.38;12.57;;;12.70;99.90;;;;;;4926459;29;20063;-70
2021/06/03 07:18:06;;;;;;;16.17;12.57;;;12.70;99.90;;;;;;4926185;29;20111;-70
2021/06/03 07:20:34;;;;;;;18.13;13.48;;;12.80;99.90;;;;;;4925225;29;20436;-69
2021/06/03 07:23:05;;;;;;;18.10;12.88;;;12.80;99.90;;;;;;4926598;29;20031;-71
2021/06/03 07:25:36;;;;;;;19.27;13.27;;;12.80;99.90;;;;;;4927017;29;20039;-71
2021/06/03 07:28:05;;;;;;;18.48;12.73;;;12.90;99.90;;;;;;4928652;29;20115;-73
2021/06/03 07:30:33;;;;;;;15.25;12.20;;;12.90;99.90;;;;;;4926381;29;20476;-73
2021/06/03 07:33:01;;;;;;;17.95;11.60;;;13.00;99.90;;;;;;4908318;29;20118;-74
2021/06/03 07:35:29;;;;;;;15.93;12.43;;;13.00;99.90;;;;;;4923283;29;20082;-72
2021/06/03 07:37:57;;;;;;;19.48;12.98;;;13.00;99.90;;;;;;4923646;29;20396;-74
2021/06/03 07:40:28;;;;;;;15.13;12.20;;;13.00;99.90;;;;;;4926531;29;20491;-74
2021/06/03 07:42:56;;;;;;;15.18;12.02;;;12.90;99.90;;;;;;4924395;29;20102;-75
2021/06/03 07:45:26;;;;;;;15.20;12.05;;;13.00;99.90;;;;;;4924933;29;20024;-71
2021/06/03 07:47:58;;;;;;;18.08;12.30;;;13.00;99.90;;;;;;4927284;29;20036;-73
2021/06/03 07:50:32;;;;;;;16.42;11.65;;;13.00;99.90;;;;;;4927384;29;20027;-72
2021/06/03 07:53:02;;;;;;;18.60;12.20;;;13.00;99.90;;;;;;4906889;29;20482;-72
2021/06/03 07:55:30;;;;;;;17.08;11.85;;;13.00;99.90;;;;;;4923668;29;20039;-74
2021/06/03 07:58:01;;;;;;;16.17;10.98;;;13.00;99.90;;;;;;4925937;29;20055;-72
2021/06/03 08:00:31;;;;;;;14.10;11.20;;;13.00;99.90;;;;;;4925865;29;20066;-72
2021/06/03 08:02:58;;;;;;;14.20;10.50;;;13.00;99.90;;;;;;4924939;29;20502;-72
2021/06/03 08:05:27;;;;;;;17.15;12.18;;;13.00;99.90;;;;;;4927427;29;20046;-71
2021/06/03 08:07:56;;;;;;;14.13;10.68;;;13.00;99.90;;;;;;4925744;29;20035;-71
2021/06/03 08:10:27;;;;;;;14.38;10.30;;;13.00;99.90;;;;;;4926376;29;20063;-71
2021/06/03 08:12:56;;;;;;;13.10;10.73;;;13.10;99.90;;;;;;4926727;29;20040;-71
2021/06/03 08:15:24;;;;;;;17.13;11.07;;;13.10;99.90;;;;;;4923696;29;20023;-71
2021/06/03 08:17:53;;;;;;;13.88;10.35;;;13.00;99.90;;;;;;4925790;29;20470;-71
2021/06/03 08:20:33;;;;;;;14.73;10.90;;;13.10;99.90;;;;;;4922244;29;20368;-72
2021/06/03 08:23:02;;;;;;;14.30;11.20;;;13.10;99.90;;;;;;4910120;29;20055;-70
2021/06/03 08:25:30;;;;;;;15.38;10.80;;;13.00;99.90;;;;;;4923830;29;20039;-73
2021/06/03 08:27:58;;;;;;;13.45;10.48;;;13.10;99.90;;;;;;4923952;29;20028;-70
2021/06/03 08:30:34;;;;;;;16.60;11.48;;;13.00;99.90;;;;;;4925990;29;20463;-73
2021/06/03 08:33:02;;;;;;;14.90;10.25;;;13.00;99.90;;;;;;4920463;29;20127;-72
2021/06/03 08:35:29;;;;;;;12.23;9.80;;;12.90;99.90;;;;;;4919379;29;20110;-70
2021/06/03 08:38:00;;;;;;;18.83;11.88;;;12.90;99.90;;;;;;4918854;29;20050;-71
2021/06/03 08:40:33;;;;;;;21.20;11.23;;;12.90;99.90;;;;;;4916766;29;20095;-71
2021/06/03 08:43:03;;;;;;;15.57;11.23;;;12.90;99.90;;;;;;4920361;29;20041;-71
2021/06/03 08:45:33;;;;;;;16.80;11.60;;;12.90;99.90;;;;;;4923320;29;20648;-71
2021/06/03 08:48:01;;;;;;;18.92;13.30;;;12.80;99.90;;;;;;4939881;28;20031;-74
2021/06/03 08:50:33;;;;;;;21.00;14.07;;;12.80;99.90;;;;;;4922570;29;20074;-71
2021/06/03 08:53:01;;;;;;;19.20;14.32;;;12.70;99.90;;;;;;4919026;29;20626;-71
2021/06/03 08:58:18;;;;;;;21.55;15.55;;;12.70;99.90;;;;;;4924863;29;20043;-69
2021/06/03 09:00:47;;;;;;;23.23;15.45;;;12.70;99.90;;;;;;4925629;29;20103;-71
2021/06/03 09:03:16;;;;;;;24.27;16.23;;;12.70;99.90;;;;;;4925376;29;20039;-71
2021/06/03 09:05:44;;;;;;;23.25;16.25;;;12.70;99.90;;;;;;4922612;29;20119;-71
2021/06/03 09:08:27;;;;;;;25.17;16.17;;;12.70;99.90;;;;;;4932684;29;20036;-70
2021/06/03 09:11:00;;;;;;;25.83;16.98;;;12.60;99.90;;;;;;4922364;29;20030;-72
2021/06/03 09:13:34;;;;;;;28.23;18.17;;;12.60;99.90;;;;;;4922283;29;20036;-71
2021/06/03 09:16:14;;;;;;;28.48;17.50;;;12.60;99.90;;;;;;4923337;29;20039;-71
2021/06/03 09:18:45;;;;;;;30.40;17.00;;;12.60;99.90;;;;;;4924368;29;20032;-71
2021/06/03 09:21:26;;;;;;;31.83;18.42;;;12.50;99.90;;;;;;4924895;29;20032;-70
2021/06/03 09:24:10;;;;;;;31.30;18.50;;;12.50;99.90;;;;;;4926039;29;20036;-71
2021/06/03 09:26:46;;;;;;;29.75;18.40;;;12.50;99.90;;;;;;4930807;29;20110;-71
2021/06/03 09:29:19;;;;;;;34.67;19.58;;;12.50;99.90;;;;;;4930210;29;20112;-71
2021/06/03 09:31:47;;;;;;;29.83;17.92;;;12.50;99.90;;;;;;4931542;29;20024;-71
2021/06/03 09:34:19;;;;;;;32.65;20.02;;;12.50;99.90;;;;;;4928682;29;20099;-72
2021/06/03 09:36:59;;;;;;;31.48;19.17;;;12.60;99.90;;;;;;4930504;29;20419;-72
2021/06/03 09:39:33;;;;;;;28.45;17.73;;;12.60;99.90;;;;;;4931097;29;20114;-71
2021/06/03 09:42:07;;;;;;;24.50;16.17;;;12.60;99.90;;;;;;4927397;29;20103;-68
2021/06/03 09:44:40;;;;;;;26.83;17.23;;;12.60;99.90;;;;;;4931373;29;20099;-70
2021/06/03 09:47:11;;;;;;;24.88;16.40;;;12.60;99.90;;;;;;4932013;29;20039;-70
2021/06/03 09:49:43;;;;;;;26.75;16.33;;;12.60;99.90;;;;;;4930714;29;20098;-70
2021/06/03 09:52:16;;;;;;;24.00;16.40;;;12.60;99.90;;;;;;4931381;29;20035;-70
2021/06/03 09:54:51;;;;;;;25.30;16.23;;;12.60;99.90;;;;;;4931255;29;20040;-70
2021/06/03 09:57:20;;;;;;;25.63;16.20;;;12.60;99.90;;;;;;4933202;29;20028;-69
2021/06/03 09:59:57;;;;;;;25.23;17.30;;;12.70;99.90;;;;;;4929100;29;20040;-70
2021/06/03 10:02:25;;;;;;;28.15;17.58;;;12.60;99.90;;;;;;4929420;29;20111;-70
2021/06/03 10:04:54;;;;;;;36.20;20.00;;;12.60;99.90;;;;;;4930658;29;20039;-70
2021/06/03 10:07:28;;;;;;;37.20;19.48;;;12.60;99.90;;;;;;4933215;29;20426;-69
2021/06/03 10:10:10;;;;;;;38.45;19.27;;;12.60;99.90;;;;;;4929049;29;20032;-70
2021/06/03 10:12:42;;;;;;;40.38;19.60;;;12.60;99.90;;;;;;4931388;29;20043;-69
2021/06/03 10:15:13;;;;;;;41.95;20.92;;;12.60;99.90;;;;;;4931084;29;20031;-69
2021/06/03 10:17:54;;;;;;;36.45;20.25;;;12.60;99.90;;;;;;4935048;29;20090;-69
2021/06/03 10:20:34;;;;;;;39.92;21.15;;;12.60;99.90;;;;;;4928095;29;20034;-69
2021/06/03 10:23:02;;;;;;;34.08;20.83;;;12.60;99.90;;;;;;4932113;29;20028;-69
2021/06/03 10:25:31;;;;;;;37.38;22.20;;;12.60;99.90;;;;;;4916278;29;20039;-67
2021/06/03 10:28:05;;;;;;;35.80;21.00;;;12.70;99.90;;;;;;4932063;29;20036;-69
2021/06/03 10:30:39;;;;;;;40.47;23.27;;;12.60;99.90;;;;;;4930206;29;20048;-69
2021/06/03 10:33:12;;;;;;;36.13;23.15;;;12.60;99.90;;;;;;4909905;29;20055;-69
2021/06/03 10:35:41;;;;;;;32.97;20.35;;;12.60;99.90;;;;;;4912455;29;20052;-69
2021/06/03 10:38:10;;;;;;;25.42;18.45;;;12.60;99.90;;;;;;4925964;29;20024;-69
2021/06/03 10:40:41;;;;;;;26.77;17.25;;;12.60;99.90;;;;;;4928145;29;20130;-69
2021/06/03 10:43:14;;;;;;;26.13;17.05;;;12.60;99.90;;;;;;4927003;29;20760;-70
2021/06/03 10:45:44;;;;;;;26.40;16.83;;;12.60;99.90;;;;;;4927578;29;20047;-70
2021/06/03 10:48:11;;;;;;;28.20;18.50;;;12.60;99.90;;;;;;4925444;29;20031;-69
2021/06/03 10:50:49;;;;;;;25.13;16.42;;;12.60;99.90;;;;;;4913841;29;20039;-69
2021/06/03 10:53:22;;;;;;;23.70;15.85;;;12.60;99.90;;;;;;4926966;29;20036;-71
2021/06/03 10:55:52;;;;;;;28.42;17.42;;;12.60;99.90;;;;;;4927552;29;20032;-71
2021/06/03 10:58:31;;;;;;;22.02;14.95;;;12.60;99.90;;;;;;4924242;29;20577;-69
2021/06/03 11:01:13;;;;;;;22.67;15.25;;;12.60;99.90;;;;;;4922866;29;20060;-71
2021/06/03 11:03:56;;;;;;;24.80;16.67;;;12.60;99.90;;;;;;4926148;29;20043;-69
2021/06/03 11:06:26;;;;;;;24.17;15.38;;;12.60;99.90;;;;;;4926819;29;20033;-67
2021/06/03 11:08:57;;;;;;;18.95;14.23;;;12.60;99.90;;;;;;4925033;29;20035;-68
2021/06/03 11:11:32;;;;;;;25.92;15.75;;;12.60;99.90;;;;;;4930070;29;20375;-69
2021/06/03 11:13:59;;;;;;;23.40;15.45;;;12.60;99.90;;;;;;4929176;29;20036;-76
2021/06/03 11:16:28;;;;;;;25.35;17.65;;;12.60;99.90;;;;;;4934323;29;20378;-72
2021/06/03 11:18:58;;;;;;;25.45;16.73;;;12.60;99.90;;;;;;4928243;29;20086;-73
2021/06/03 11:21:35;;;;;;;30.63;18.65;;;12.60;99.90;;;;;;4923930;29;20028;-73
2021/06/03 11:24:10;;;;;;;30.75;19.67;;;12.70;99.90;;;;;;4928364;29;20043;-73
2021/06/03 11:26:43;;;;;;;28.93;18.63;;;12.70;99.90;;;;;;4929035;29;20439;-73
2021/06/03 11:29:33;;;;;;;27.92;18.15;;;12.60;99.90;;;;;;4926649;29;20063;-73
2021/06/03 11:32:03;;;;;;;30.42;17.92;;;12.60;99.90;;;;;;4926952;29;20039;-72
2021/06/03 11:34:42;;;;;;;30.48;18.25;;;12.60;99.90;;;;;;4927023;29;20050;-73
2021/06/03 11:37:17;;;;;;;27.58;17.63;;;12.60;99.90;;;;;;4925632;29;20368;-73
2021/06/03 11:39:49;;;;;;;35.38;19.60;;;12.60;99.90;;;;;;4926391;29;20574;-72
2021/06/03 11:42:38;;;;;;;33.17;16.48;;;12.60;99.90;;;;;;4926125;29;20032;-73
2021/06/03 11:45:26;;;;;;;34.20;17.88;;;12.50;99.90;;;;;;4926806;29;20023;-74
2021/06/03 11:47:56;;;;;;;34.55;18.50;;;12.50;99.90;;;;;;4925765;29;20032;-73
2021/06/03 11:50:23;;;;;;;31.17;18.23;;;12.50;99.90;;;;;;4926927;29;20035;-73
2021/06/03 11:52:59;;;;;;;32.97;17.77;;;12.50;99.90;;;;;;4926175;29;20136;-72
2021/06/03 11:55:44;;;;;;;28.88;14.32;;;12.60;99.90;;;;;;4925455;29;20024;-73
2021/06/03 11:58:16;;;;;;;26.58;14.25;;;12.60;99.90;;;;;;4909620;29;20031;-71
2021/06/03 12:00:59;;;;;;;26.90;13.75;;;12.60;99.90;;;;;;4924639;29;20059;-71
2021/06/03 12:03:41;;;;;;;24.10;13.05;;;12.60;99.90;;;;;;4929041;29;20119;-70
2021/06/03 12:06:15;;;;;;;25.73;14.10;;;12.60;99.90;;;;;;4925767;29;20026;-72
2021/06/03 12:08:45;;;;;;;29.15;15.45;;;12.60;99.90;;;;;;4924411;29;20043;-70
2021/06/03 12:11:40;;;;;;;26.65;14.63;;;12.60;99.90;;;;;;4926415;29;20510;-73
2021/06/03 12:14:19;;;;;;;28.52;13.68;;;12.60;99.90;;;;;;4924742;29;20043;-70
2021/06/03 12:16:57;;;;;;;24.98;12.93;;;12.60;99.90;;;;;;4923693;29;20482;-72
2021/06/03 12:19:31;;;;;;;21.85;14.18;;;12.60;99.90;;;;;;4924931;29;20043;-72
2021/06/03 12:22:06;;;;;;;29.92;15.63;;;12.60;99.90;;;;;;4930220;29;20434;-73
2021/06/03 12:24:33;;;;;;;26.67;13.55;;;12.60;99.90;;;;;;4924528;29;20071;-74
2021/06/03 12:27:01;;;;;;;27.20;14.88;;;12.60;99.90;;;;;;4929475;29;20051;-73
2021/06/03 12:29:32;;;;;;;26.25;13.52;;;12.60;99.90;;;;;;4929737;29;20031;-73
2021/06/03 12:32:01;;;;;;;24.00;11.80;;;12.60;99.90;;;;;;4925166;29;20047;-72
2021/06/03 12:34:31;;;;;;;23.45;13.05;;;12.60;99.90;;;;;;4925699;29;20082;-73
2021/06/03 12:37:00;;;;;;;26.52;14.45;;;12.60;99.90;;;;;;4927406;29;20036;-71
2021/06/03 12:39:36;;;;;;;24.83;13.60;;;12.60;99.90;;;;;;4929114;29;20103;-71
2021/06/03 12:42:04;;;;;;;28.80;12.40;;;12.60;99.90;;;;;;4925750;29;20521;-70
2021/06/03 12:44:31;;;;;;;24.02;14.30;;;12.60;99.90;;;;;;4930774;29;20038;-72
2021/06/03 12:47:00;;;;;;;29.70;14.00;;;12.60;99.90;;;;;;4925304;29;20028;-73
2021/06/03 12:49:29;;;;;;;28.35;14.40;;;12.60;99.90;;;;;;4931478;29;20054;-73
2021/06/03 12:52:01;;;;;;;28.45;14.32;;;12.60;99.90;;;;;;4927539;29;20033;-72